Time;durP1;ratioP1;P1;durP2;ratioP2;P2;SDS_P1;SDS_P2;PMS_P1;PMS_P2;Temp;Humidity;BMP_temperature;BMP_pressure;BME280_temperature;BME280_humidity;BME280_pressure;Samples;Min_cycle;Max_cycle;Signal;HPM_P1;HPM_P2
2022/03/31 00:00:36;;;;;;;;;49.50;40.25;;;;;;;;5081588;28;45844;-81
2022/03/31 00:03:02;;;;;;;;;41.50;33.75;;;;;;;;5079250;27;46441;-80
2022/03/31 00:05:27;;;;;;;;;46.50;37.00;;;;;;;;5073753;27;45271;-80
2022/03/31 00:07:54;;;;;;;;;50.50;41.00;;;;;;;;5074660;28;45402;-80
2022/03/31 00:10:30;;;;;;;;;42.75;33.25;;;;;;;;5074926;27;45317;-79
2022/03/31 00:12:56;;;;;;;;;41.25;33.75;;;;;;;;5074746;27;46361;-80
2022/03/31 00:15:22;;;;;;;;;38.25;31.00;;;;;;;;5072818;28;45457;-79
2022/03/31 00:17:47;;;;;;;;;38.50;30.00;;;;;;;;5062167;27;45255;-78
2022/03/31 00:20:13;;;;;;;;;38.25;34.00;;;;;;;;5065427;28;45522;-79
2022/03/31 00:22:39;;;;;;;;;38.25;32.00;;;;;;;;5066826;28;47603;-80
2022/03/31 00:25:06;;;;;;;;;36.00;31.50;;;;;;;;5074785;27;45456;-80
2022/03/31 00:27:31;;;;;;;;;40.00;35.50;;;;;;;;5074811;27;45273;-81
2022/03/31 00:29:56;;;;;;;;;39.25;32.50;;;;;;;;5072577;28;45457;-78
2022/03/31 00:32:22;;;;;;;;;42.75;35.25;;;;;;;;5064611;28;46134;-77
2022/03/31 00:34:47;;;;;;;;;33.25;31.50;;;;;;;;5063983;28;45499;-76
2022/03/31 00:37:12;;;;;;;;;40.75;35.25;;;;;;;;5069276;28;45469;-76
2022/03/31 00:39:38;;;;;;;;;40.50;35.25;;;;;;;;5072971;28;45385;-77
2022/03/31 00:42:03;;;;;;;;;41.00;34.50;;;;;;;;5067005;28;46063;-76
2022/03/31 00:44:29;;;;;;;;;44.75;34.50;;;;;;;;5074161;27;45395;-77
2022/03/31 00:46:55;;;;;;;;;41.75;35.50;;;;;;;;5072366;27;45381;-77
2022/03/31 00:49:21;;;;;;;;;37.00;31.25;;;;;;;;5074046;28;45435;-75
2022/03/31 00:51:47;;;;;;;;;45.75;34.25;;;;;;;;5074234;27;45505;-76
2022/03/31 00:54:13;;;;;;;;;39.00;33.00;;;;;;;;5063123;27;45465;-77
2022/03/31 00:56:40;;;;;;;;;37.75;33.25;;;;;;;;5074774;27;45441;-77
2022/03/31 00:59:06;;;;;;;;;41.00;32.75;;;;;;;;5071243;27;45454;-77
2022/03/31 01:01:35;;;;;;;;;43.25;35.75;;;;;;;;5062078;28;46923;-76
2022/03/31 01:04:00;;;;;;;;;38.25;32.00;;;;;;;;5062330;28;45449;-77
2022/03/31 01:06:26;;;;;;;;;40.00;34.25;;;;;;;;5074009;27;45350;-78
2022/03/31 01:08:51;;;;;;;;;33.75;32.50;;;;;;;;5074566;27;45363;-77
2022/03/31 01:11:16;;;;;;;;;36.25;33.50;;;;;;;;5073820;28;46660;-77
2022/03/31 01:13:41;;;;;;;;;42.00;34.00;;;;;;;;5076835;28;45501;-80
2022/03/31 01:16:06;;;;;;;;;41.25;34.75;;;;;;;;5076198;28;45519;-80
2022/03/31 01:18:32;;;;;;;;;43.25;35.50;;;;;;;;5075691;28;45294;-77
2022/03/31 01:20:57;;;;;;;;;34.75;32.00;;;;;;;;5077600;27;45346;-76
2022/03/31 01:23:22;;;;;;;;;44.75;34.50;;;;;;;;5077243;28;45505;-77
2022/03/31 01:25:47;;;;;;;;;39.75;31.50;;;;;;;;5077313;28;45721;-76
2022/03/31 01:28:13;;;;;;;;;37.00;33.75;;;;;;;;5077437;28;45487;-76
2022/03/31 01:30:38;;;;;;;;;51.00;37.25;;;;;;;;5077583;27;46121;-76
2022/03/31 01:33:03;;;;;;;;;47.00;37.25;;;;;;;;5077404;28;45430;-78
2022/03/31 01:35:28;;;;;;;;;47.75;37.75;;;;;;;;5077314;28;45473;-78
2022/03/31 01:37:53;;;;;;;;;45.75;35.00;;;;;;;;5077044;28;45365;-78
2022/03/31 01:40:19;;;;;;;;;49.25;38.25;;;;;;;;5076977;28;46357;-76
2022/03/31 01:42:44;;;;;;;;;45.75;34.50;;;;;;;;5077356;28;45280;-76
2022/03/31 01:45:11;;;;;;;;;44.00;35.75;;;;;;;;5077797;27;45453;-78
2022/03/31 01:47:37;;;;;;;;;38.00;33.25;;;;;;;;5065002;28;45533;-78
2022/03/31 01:50:02;;;;;;;;;47.75;39.50;;;;;;;;5072529;28;46089;-77
2022/03/31 01:52:28;;;;;;;;;47.00;37.00;;;;;;;;5077048;27;45277;-77
2022/03/31 01:54:53;;;;;;;;;46.00;37.00;;;;;;;;5076966;27;45440;-78
2022/03/31 01:57:18;;;;;;;;;40.75;35.00;;;;;;;;5077231;27;45267;-78
2022/03/31 01:59:44;;;;;;;;;47.50;38.50;;;;;;;;5077074;28;46123;-78
2022/03/31 02:02:12;;;;;;;;;47.00;37.75;;;;;;;;5068825;28;45308;-77
2022/03/31 02:04:37;;;;;;;;;48.00;39.50;;;;;;;;5068657;28;45455;-78
2022/03/31 02:07:02;;;;;;;;;54.25;38.75;;;;;;;;5076661;28;45445;-77
2022/03/31 02:09:27;;;;;;;;;49.25;37.00;;;;;;;;5076758;27;45482;-77
2022/03/31 02:11:53;;;;;;;;;49.25;39.25;;;;;;;;5077368;28;45411;-78
2022/03/31 02:14:19;;;;;;;;;49.25;40.00;;;;;;;;5076452;28;45427;-77
2022/03/31 02:16:45;;;;;;;;;45.50;36.50;;;;;;;;5076576;28;45394;-77
2022/03/31 02:19:11;;;;;;;;;46.00;37.25;;;;;;;;5076335;27;45555;-76
2022/03/31 02:21:36;;;;;;;;;54.00;40.25;;;;;;;;5076269;27;45314;-76
2022/03/31 02:24:02;;;;;;;;;44.75;36.50;;;;;;;;5076439;28;45399;-77
2022/03/31 02:26:27;;;;;;;;;49.75;37.25;;;;;;;;5076426;27;45492;-76
2022/03/31 02:28:52;;;;;;;;;52.50;38.75;;;;;;;;5075598;28;45448;-77
2022/03/31 02:31:17;;;;;;;;;52.25;42.00;;;;;;;;5076375;28;45506;-77
2022/03/31 02:33:43;;;;;;;;;49.25;41.00;;;;;;;;5076236;28;45214;-77
2022/03/31 02:36:08;;;;;;;;;51.00;41.00;;;;;;;;5076971;27;45438;-76
2022/03/31 02:38:34;;;;;;;;;43.00;34.75;;;;;;;;5076278;28;47076;-77
2022/03/31 02:40:59;;;;;;;;;48.25;38.25;;;;;;;;5069653;27;45422;-77
2022/03/31 02:43:25;;;;;;;;;51.50;41.50;;;;;;;;5065982;28;45520;-77
2022/03/31 02:45:50;;;;;;;;;45.00;39.50;;;;;;;;5076544;28;45407;-76
2022/03/31 02:48:15;;;;;;;;;48.00;39.25;;;;;;;;5076374;27;46413;-77
2022/03/31 02:50:41;;;;;;;;;48.50;39.25;;;;;;;;5076253;27;45366;-77
2022/03/31 02:55:50;;;;;;;;;52.50;43.25;;;;;;;;5070993;28;45293;-77
2022/03/31 02:58:15;;;;;;;;;51.75;41.00;;;;;;;;5064361;28;46079;-77
2022/03/31 03:00:40;;;;;;;;;53.25;43.25;;;;;;;;5076285;28;45756;-77
2022/03/31 03:03:06;;;;;;;;;45.50;36.00;;;;;;;;5076443;28;45265;-77
2022/03/31 03:05:31;;;;;;;;;54.50;44.25;;;;;;;;5075960;27;45606;-77
2022/03/31 03:07:56;;;;;;;;;53.25;42.50;;;;;;;;5075621;28;47332;-77
2022/03/31 03:10:22;;;;;;;;;51.00;40.50;;;;;;;;5075907;27;45477;-78
2022/03/31 03:12:47;;;;;;;;;53.00;44.75;;;;;;;;5075789;27;45747;-77
2022/03/31 03:15:13;;;;;;;;;55.75;43.75;;;;;;;;5076530;27;45502;-77
2022/03/31 03:17:42;;;;;;;;;58.25;45.00;;;;;;;;5075502;27;46529;-77
2022/03/31 03:20:08;;;;;;;;;57.50;43.00;;;;;;;;5074968;27;45277;-77
2022/03/31 03:22:33;;;;;;;;;55.25;44.75;;;;;;;;5075447;27;45429;-77
2022/03/31 03:24:59;;;;;;;;;52.25;41.00;;;;;;;;5075175;28;45421;-76
2022/03/31 03:27:24;;;;;;;;;49.75;39.25;;;;;;;;5074447;27;45303;-77
2022/03/31 03:29:49;;;;;;;;;57.50;45.25;;;;;;;;5075418;27;45957;-77
2022/03/31 03:32:15;;;;;;;;;54.75;43.00;;;;;;;;5074769;28;45327;-77
2022/03/31 03:34:41;;;;;;;;;56.50;43.75;;;;;;;;5074762;27;45406;-77
2022/03/31 03:37:06;;;;;;;;;57.00;45.50;;;;;;;;5073505;28;46040;-77
2022/03/31 03:39:33;;;;;;;;;51.75;41.25;;;;;;;;5074913;27;45291;-77
2022/03/31 03:41:58;;;;;;;;;52.50;44.50;;;;;;;;5075393;27;45396;-76
2022/03/31 03:44:24;;;;;;;;;54.00;42.25;;;;;;;;5074904;27;45519;-76
2022/03/31 03:46:50;;;;;;;;;55.25;43.50;;;;;;;;5074512;27;46270;-77
2022/03/31 03:49:15;;;;;;;;;54.75;43.00;;;;;;;;5074959;28;45441;-77
2022/03/31 03:51:40;;;;;;;;;57.75;46.25;;;;;;;;5075392;28;46004;-75
2022/03/31 03:54:05;;;;;;;;;56.25;44.50;;;;;;;;5075596;28;45375;-78
2022/03/31 03:56:30;;;;;;;;;49.50;38.50;;;;;;;;5074304;28;46735;-77
2022/03/31 03:58:56;;;;;;;;;55.50;44.25;;;;;;;;5068639;28;45619;-78
2022/03/31 04:01:21;;;;;;;;;56.25;43.50;;;;;;;;5064678;28;45372;-78
2022/03/31 04:03:46;;;;;;;;;56.75;44.25;;;;;;;;5074900;28;45689;-77
2022/03/31 04:06:11;;;;;;;;;47.25;36.75;;;;;;;;5075104;27;46081;-77
2022/03/31 04:08:38;;;;;;;;;57.00;44.00;;;;;;;;5074545;27;45405;-77
2022/03/31 04:11:03;;;;;;;;;56.50;42.75;;;;;;;;5073978;27;45368;-77
2022/03/31 04:13:28;;;;;;;;;56.00;45.50;;;;;;;;5074532;28;45433;-77
2022/03/31 04:15:53;;;;;;;;;54.75;43.50;;;;;;;;5074489;28;45332;-77
2022/03/31 04:18:18;;;;;;;;;49.00;38.50;;;;;;;;5074565;27;45595;-77
2022/03/31 04:20:44;;;;;;;;;56.25;44.00;;;;;;;;5074498;28;45240;-77
2022/03/31 04:23:09;;;;;;;;;56.25;45.50;;;;;;;;5074079;28;45539;-77
2022/03/31 04:25:34;;;;;;;;;55.50;45.00;;;;;;;;5073653;28;46206;-78
2022/03/31 04:27:59;;;;;;;;;54.75;43.50;;;;;;;;5073860;28;45442;-77
2022/03/31 04:30:26;;;;;;;;;49.00;40.75;;;;;;;;5074114;27;45437;-78
2022/03/31 04:32:51;;;;;;;;;56.75;44.25;;;;;;;;5075686;27;45437;-77
2022/03/31 04:35:17;;;;;;;;;58.25;44.00;;;;;;;;5073410;28;46658;-75
2022/03/31 04:37:42;;;;;;;;;50.50;39.50;;;;;;;;5069301;27;45331;-77
2022/03/31 04:40:08;;;;;;;;;59.50;48.00;;;;;;;;5061308;28;45528;-78
2022/03/31 04:42:34;;;;;;;;;58.75;44.50;;;;;;;;5074042;27;45373;-78
2022/03/31 04:45:02;;;;;;;;;56.50;45.25;;;;;;;;5074018;27;45713;-78
2022/03/31 04:47:27;;;;;;;;;59.00;45.50;;;;;;;;5075169;27;45322;-78
2022/03/31 04:49:52;;;;;;;;;60.25;47.00;;;;;;;;5076975;28;45344;-77
2022/03/31 04:52:17;;;;;;;;;56.00;44.75;;;;;;;;5076833;28;45469;-77
2022/03/31 04:54:45;;;;;;;;;55.00;44.25;;;;;;;;5076292;28;45401;-77
2022/03/31 04:57:12;;;;;;;;;60.00;47.75;;;;;;;;5077050;27;45232;-78
2022/03/31 04:59:37;;;;;;;;;51.50;40.75;;;;;;;;5076202;28;45514;-76
2022/03/31 05:02:02;;;;;;;;;55.75;43.25;;;;;;;;5070705;28;45383;-77
2022/03/31 05:04:28;;;;;;;;;58.25;46.25;;;;;;;;5067669;28;46274;-78
2022/03/31 05:06:54;;;;;;;;;61.00;48.75;;;;;;;;5077011;28;47118;-78
2022/03/31 05:09:20;;;;;;;;;57.25;46.25;;;;;;;;5076892;28;45283;-78
2022/03/31 05:11:45;;;;;;;;;50.50;39.00;;;;;;;;5077477;27;45493;-78
2022/03/31 05:14:11;;;;;;;;;55.00;44.50;;;;;;;;5075881;28;47138;-78
2022/03/31 05:16:36;;;;;;;;;65.00;48.50;;;;;;;;5073109;28;45407;-78
2022/03/31 05:19:02;;;;;;;;;52.50;43.00;;;;;;;;5063662;28;45436;-78
2022/03/31 05:21:27;;;;;;;;;66.50;47.50;;;;;;;;5076622;27;45331;-84
2022/03/31 05:23:52;;;;;;;;;60.00;46.25;;;;;;;;5077205;28;45312;-81
2022/03/31 05:26:17;;;;;;;;;61.75;48.25;;;;;;;;5076535;28;45310;-83
2022/03/31 05:28:43;;;;;;;;;65.00;48.50;;;;;;;;5079754;28;45196;-83
2022/03/31 05:31:08;;;;;;;;;58.75;44.75;;;;;;;;5076133;28;45280;-82
2022/03/31 05:33:34;;;;;;;;;59.25;48.50;;;;;;;;5076297;28;46229;-82
2022/03/31 05:36:01;;;;;;;;;61.25;46.50;;;;;;;;5076921;27;45303;-83
2022/03/31 05:38:26;;;;;;;;;63.75;49.25;;;;;;;;5077043;27;45995;-80
2022/03/31 05:40:52;;;;;;;;;62.25;48.00;;;;;;;;5075550;28;45442;-77
2022/03/31 05:43:17;;;;;;;;;63.25;49.00;;;;;;;;5075687;28;46935;-77
2022/03/31 05:45:42;;;;;;;;;67.75;52.50;;;;;;;;5075905;28;45312;-76
2022/03/31 05:48:08;;;;;;;;;67.00;49.67;;;;;;;;5076085;27;45331;-76
2022/03/31 05:50:33;;;;;;;;;64.50;51.00;;;;;;;;5075610;28;45278;-75
2022/03/31 05:52:58;;;;;;;;;64.00;49.50;;;;;;;;5075152;27;46017;-77
2022/03/31 05:55:23;;;;;;;;;69.00;54.00;;;;;;;;5073960;28;45537;-77
2022/03/31 05:57:49;;;;;;;;;67.50;52.00;;;;;;;;5060695;28;45346;-76
2022/03/31 06:00:16;;;;;;;;;66.00;52.00;;;;;;;;5074603;27;45497;-77
2022/03/31 06:02:41;;;;;;;;;60.50;47.75;;;;;;;;5062279;28;45798;-77
2022/03/31 06:05:07;;;;;;;;;70.33;53.67;;;;;;;;5071912;28;45546;-76
2022/03/31 06:07:32;;;;;;;;;66.33;52.00;;;;;;;;5072165;27;45496;-77
2022/03/31 06:09:57;;;;;;;;;69.00;53.67;;;;;;;;5062181;28;45545;-77
2022/03/31 06:12:22;;;;;;;;;69.67;54.33;;;;;;;;5075210;28;45608;-77
2022/03/31 06:14:48;;;;;;;;;74.00;55.00;;;;;;;;5075223;28;45275;-77
2022/03/31 06:17:13;;;;;;;;;72.33;55.00;;;;;;;;5075451;28;45319;-75
2022/03/31 06:19:38;;;;;;;;;66.00;51.50;;;;;;;;5074862;28;45299;-76
2022/03/31 06:22:04;;;;;;;;;68.50;52.25;;;;;;;;5074327;28;47118;-77
2022/03/31 06:24:29;;;;;;;;;71.00;54.67;;;;;;;;5074569;27;45532;-77
2022/03/31 06:26:57;;;;;;;;;69.00;53.67;;;;;;;;5070901;28;45472;-77
2022/03/31 06:29:23;;;;;;;;;69.50;53.00;;;;;;;;5066879;27;45378;-77
2022/03/31 06:31:49;;;;;;;;;70.00;52.00;;;;;;;;5062781;28;46957;-78
2022/03/31 06:34:15;;;;;;;;;71.00;52.33;;;;;;;;5074205;28;45502;-83
2022/03/31 06:36:40;;;;;;;;;70.00;52.67;;;;;;;;5075488;28;45353;-82
2022/03/31 06:39:05;;;;;;;;;68.33;53.33;;;;;;;;5063775;28;45447;-85
2022/03/31 06:41:31;;;;;;;;;66.50;50.75;;;;;;;;5065711;27;46263;-86
2022/03/31 06:43:57;;;;;;;;;77.33;56.33;;;;;;;;5073087;28;45487;-85
2022/03/31 06:46:22;;;;;;;;;71.75;55.00;;;;;;;;5066473;27;45503;-85
2022/03/31 06:48:48;;;;;;;;;67.75;51.00;;;;;;;;5065418;28;45436;-85
2022/03/31 06:51:19;;;;;;;;;65.50;51.25;;;;;;;;5075474;28;47165;-85
2022/03/31 06:53:44;;;;;;;;;64.00;49.25;;;;;;;;5076122;27;45549;-84
2022/03/31 06:56:12;;;;;;;;;67.25;51.00;;;;;;;;5076705;28;45534;-83
2022/03/31 06:58:37;;;;;;;;;63.50;50.00;;;;;;;;5077982;27;45526;-85
2022/03/31 07:01:03;;;;;;;;;60.00;48.75;;;;;;;;5077729;28;45497;-87
2022/03/31 07:03:28;;;;;;;;;68.33;51.67;;;;;;;;5075552;27;45242;-85
2022/03/31 07:05:56;;;;;;;;;61.50;49.25;;;;;;;;5071950;28;45310;-85
2022/03/31 07:08:21;;;;;;;;;63.50;47.25;;;;;;;;5074233;28;45585;-84
2022/03/31 07:10:46;;;;;;;;;58.75;47.50;;;;;;;;5075009;28;45486;-85
2022/03/31 07:13:12;;;;;;;;;64.50;51.25;;;;;;;;5075213;28;45488;-84
2022/03/31 07:15:37;;;;;;;;;65.00;51.00;;;;;;;;5061109;28;45354;-84
2022/03/31 07:18:04;;;;;;;;;59.50;48.25;;;;;;;;5071998;27;45617;-85
2022/03/31 07:20:33;;;;;;;;;65.00;49.00;;;;;;;;5070150;27;46440;-85
2022/03/31 07:22:59;;;;;;;;;62.75;49.50;;;;;;;;5063356;28;45489;-85
2022/03/31 07:25:24;;;;;;;;;61.75;49.00;;;;;;;;5067684;28;45355;-85
2022/03/31 07:27:50;;;;;;;;;63.75;48.00;;;;;;;;5073352;28;45406;-84
2022/03/31 07:30:16;;;;;;;;;65.00;48.75;;;;;;;;5062687;28;46693;-84
2022/03/31 07:32:55;;;;;;;;;62.00;48.50;;;;;;;;5069873;28;45730;-84
2022/03/31 07:35:22;;;;;;;;;66.75;50.25;;;;;;;;5065724;27;45446;-84
2022/03/31 07:37:48;;;;;;;;;60.25;46.00;;;;;;;;5078426;28;45287;-85
2022/03/31 07:40:13;;;;;;;;;56.75;46.00;;;;;;;;5068932;27;46918;-85
2022/03/31 07:42:38;;;;;;;;;64.25;49.75;;;;;;;;5073341;28;45357;-85
2022/03/31 07:45:04;;;;;;;;;64.25;48.75;;;;;;;;5058236;28;45311;-86
2022/03/31 07:47:29;;;;;;;;;60.00;48.00;;;;;;;;5062999;28;45491;-84
2022/03/31 07:49:55;;;;;;;;;65.00;50.75;;;;;;;;5065128;28;45341;-83
2022/03/31 07:52:21;;;;;;;;;65.50;50.75;;;;;;;;5061002;28;45565;-85
2022/03/31 07:54:47;;;;;;;;;69.50;52.25;;;;;;;;5071285;28;45503;-85
2022/03/31 07:57:12;;;;;;;;;60.75;46.00;;;;;;;;5058573;27;46328;-84
2022/03/31 07:59:37;;;;;;;;;59.50;46.50;;;;;;;;5061074;27;47012;-84
2022/03/31 08:02:03;;;;;;;;;67.50;51.00;;;;;;;;5066091;28;45390;-86
2022/03/31 08:04:28;;;;;;;;;56.50;44.00;;;;;;;;5065750;28;45363;-86
2022/03/31 08:06:54;;;;;;;;;61.00;46.75;;;;;;;;5065660;27;45619;-86
2022/03/31 08:09:21;;;;;;;;;53.50;42.50;;;;;;;;5071795;27;45586;-84
2022/03/31 08:11:47;;;;;;;;;45.75;33.00;;;;;;;;5067402;27;45543;-84
2022/03/31 08:14:12;;;;;;;;;23.25;21.00;;;;;;;;5062747;27;45498;-85
2022/03/31 08:16:37;;;;;;;;;28.00;23.50;;;;;;;;5066785;28;45564;-86
2022/03/31 08:19:03;;;;;;;;;20.50;17.75;;;;;;;;5069706;28;46012;-84
2022/03/31 08:21:28;;;;;;;;;20.00;18.50;;;;;;;;5057722;28;45609;-85
2022/03/31 08:23:53;;;;;;;;;22.00;18.00;;;;;;;;5071553;28;46653;-85
2022/03/31 08:26:18;;;;;;;;;20.25;19.00;;;;;;;;5071613;28;45295;-84
2022/03/31 08:28:45;;;;;;;;;17.00;15.75;;;;;;;;5067936;28;46358;-86
2022/03/31 08:31:10;;;;;;;;;18.00;15.50;;;;;;;;5062880;28;45510;-85
2022/03/31 08:33:35;;;;;;;;;16.75;14.75;;;;;;;;5065120;28;45473;-84
2022/03/31 08:36:00;;;;;;;;;12.00;12.00;;;;;;;;5059126;27;47041;-84
2022/03/31 08:38:25;;;;;;;;;13.50;12.00;;;;;;;;5062874;28;45491;-84
2022/03/31 08:40:53;;;;;;;;;15.25;14.50;;;;;;;;5067489;28;45440;-85
2022/03/31 08:43:20;;;;;;;;;12.00;11.50;;;;;;;;5071725;27;45539;-85
2022/03/31 08:45:51;;;;;;;;;15.50;14.00;;;;;;;;5069525;27;45532;-85
2022/03/31 08:48:16;;;;;;;;;13.00;10.50;;;;;;;;5069011;28;47656;-85
2022/03/31 08:50:42;;;;;;;;;8.50;8.50;;;;;;;;5062293;28;45327;-84
2022/03/31 08:53:07;;;;;;;;;13.00;12.00;;;;;;;;5065093;28;45392;-84
2022/03/31 08:55:32;;;;;;;;;14.00;12.25;;;;;;;;5066566;28;45604;-84
2022/03/31 08:57:58;;;;;;;;;10.50;10.00;;;;;;;;5058569;28;45385;-84
2022/03/31 09:00:23;;;;;;;;;11.00;9.00;;;;;;;;5072012;28;45486;-84
2022/03/31 09:02:59;;;;;;;;;6.75;6.75;;;;;;;;5069487;28;45335;-84
2022/03/31 09:05:25;;;;;;;;;9.50;7.25;;;;;;;;5062236;28;45488;-85
2022/03/31 09:07:51;;;;;;;;;9.00;6.50;;;;;;;;5059094;28;45938;-85
2022/03/31 09:10:24;;;;;;;;;13.00;9.00;;;;;;;;5063994;28;45387;-84
2022/03/31 09:12:49;;;;;;;;;11.00;10.50;;;;;;;;5072917;27;45332;-85
2022/03/31 09:15:15;;;;;;;;;12.00;8.75;;;;;;;;5072901;28;45405;-85
2022/03/31 09:17:40;;;;;;;;;8.00;6.50;;;;;;;;5073786;27;46139;-84
2022/03/31 09:20:06;;;;;;;;;8.75;8.75;;;;;;;;5074560;27;45329;-84
2022/03/31 09:22:43;;;;;;;;;5.50;5.50;;;;;;;;5069395;28;45449;-84
2022/03/31 09:25:08;;;;;;;;;6.75;6.75;;;;;;;;5062662;28;45495;-84
2022/03/31 09:27:34;;;;;;;;;8.00;7.00;;;;;;;;5056098;27;46400;-84
2022/03/31 09:30:06;;;;;;;;;16.75;14.50;;;;;;;;5073732;27;45399;-83
2022/03/31 09:32:32;;;;;;;;;6.50;6.50;;;;;;;;5062416;27;45299;-85
2022/03/31 09:35:05;;;;;;;;;9.25;8.50;;;;;;;;5070353;28;45457;-84
2022/03/31 09:37:31;;;;;;;;;9.50;9.50;;;;;;;;5066756;28;47232;-84
2022/03/31 09:39:56;;;;;;;;;11.50;11.50;;;;;;;;5069198;27;45466;-84
2022/03/31 09:42:21;;;;;;;;;8.00;6.25;;;;;;;;5064124;28;45552;-83
2022/03/31 09:44:55;;;;;;;;;12.50;10.00;;;;;;;;5063115;27;45462;-83
2022/03/31 09:47:20;;;;;;;;;11.50;10.25;;;;;;;;5071293;28;47087;-84
2022/03/31 09:49:51;;;;;;;;;7.25;7.25;;;;;;;;5069410;28;45407;-83
2022/03/31 09:52:16;;;;;;;;;5.75;5.75;;;;;;;;5065090;28;45547;-84
2022/03/31 09:54:41;;;;;;;;;12.00;11.75;;;;;;;;5071225;28;45477;-84
2022/03/31 09:57:08;;;;;;;;;11.25;10.00;;;;;;;;5077023;28;45353;-80
2022/03/31 09:59:35;;;;;;;;;10.50;10.50;;;;;;;;5075629;28;45404;-80
2022/03/31 10:02:01;;;;;;;;;12.75;7.75;;;;;;;;5070353;27;45452;-81
2022/03/31 10:04:27;;;;;;;;;12.00;10.75;;;;;;;;5065303;28;45440;-80
2022/03/31 10:06:52;;;;;;;;;8.25;8.25;;;;;;;;5068582;28;47225;-80
2022/03/31 10:09:18;;;;;;;;;7.50;5.75;;;;;;;;5075721;27;45424;-79
2022/03/31 10:11:44;;;;;;;;;13.00;11.50;;;;;;;;5076115;27;45272;-80
2022/03/31 10:14:10;;;;;;;;;10.00;10.00;;;;;;;;5075323;27;45479;-80
2022/03/31 10:16:53;;;;;;;;;7.75;7.75;;;;;;;;5075616;28;45911;-81
2022/03/31 10:19:26;;;;;;;;;10.50;8.50;;;;;;;;5068922;28;45502;-81
2022/03/31 10:25:04;;;;;;;;;8.50;7.25;;;;;;;;5062989;28;45267;-82
2022/03/31 10:27:35;;;;;;;;;8.75;7.50;;;;;;;;5058155;27;45459;-81
2022/03/31 10:30:19;;;;;;;;;7.75;7.50;;;;;;;;5075938;27;45393;-82
2022/03/31 10:32:53;;;;;;;;;6.50;6.50;;;;;;;;5062404;28;45366;-83
2022/03/31 10:35:23;;;;;;;;;9.00;7.75;;;;;;;;5071530;28;45337;-83
2022/03/31 10:37:48;;;;;;;;;4.00;4.00;;;;;;;;5072024;27;47389;-83
2022/03/31 10:40:13;;;;;;;;;4.00;4.00;;;;;;;;5074609;28;45420;-84
2022/03/31 10:42:39;;;;;;;;;3.75;3.00;;;;;;;;5062425;28;45434;-84
2022/03/31 10:45:05;;;;;;;;;5.00;4.00;;;;;;;;5070030;27;45601;-81
2022/03/31 10:47:32;;;;;;;;;3.00;3.00;;;;;;;;5074237;27;46051;-77
2022/03/31 10:49:57;;;;;;;;;4.75;4.00;;;;;;;;5069322;27;45448;-78
2022/03/31 10:52:23;;;;;;;;;4.50;4.50;;;;;;;;5075723;27;45436;-77
2022/03/31 10:54:49;;;;;;;;;3.75;3.75;;;;;;;;5072502;28;45428;-82
2022/03/31 10:57:15;;;;;;;;;6.00;5.00;;;;;;;;5064090;27;45580;-83
2022/03/31 10:59:41;;;;;;;;;6.00;5.00;;;;;;;;5074943;28;45270;-82
2022/03/31 11:02:10;;;;;;;;;4.75;4.75;;;;;;;;5075494;27;45559;-81
2022/03/31 11:04:44;;;;;;;;;5.75;5.75;;;;;;;;5070428;27;45417;-82
2022/03/31 11:07:12;;;;;;;;;9.50;7.75;;;;;;;;5071620;28;45467;-80
2022/03/31 11:09:38;;;;;;;;;4.75;4.00;;;;;;;;5061399;28;45424;-79
2022/03/31 11:12:04;;;;;;;;;7.25;7.25;;;;;;;;5074085;27;45299;-79
2022/03/31 11:14:29;;;;;;;;;8.00;7.25;;;;;;;;5073883;27;45477;-80
2022/03/31 11:16:54;;;;;;;;;4.00;3.25;;;;;;;;5072252;27;45739;-79
2022/03/31 11:19:20;;;;;;;;;6.25;6.25;;;;;;;;5071599;27;45461;-80
2022/03/31 11:21:46;;;;;;;;;8.25;7.25;;;;;;;;5073794;27;45257;-78
2022/03/31 11:24:11;;;;;;;;;5.00;5.00;;;;;;;;5068812;27;45500;-78
2022/03/31 11:26:43;;;;;;;;;10.50;9.50;;;;;;;;5072609;27;45287;-78
2022/03/31 11:29:09;;;;;;;;;13.00;9.00;;;;;;;;5063304;27;45513;-78
2022/03/31 11:31:35;;;;;;;;;8.25;8.25;;;;;;;;5061785;28;45359;-78
2022/03/31 11:34:00;;;;;;;;;7.00;7.00;;;;;;;;5073055;27;45371;-82
2022/03/31 11:36:35;;;;;;;;;7.00;7.00;;;;;;;;5074378;27;46276;-81
2022/03/31 11:39:00;;;;;;;;;8.25;8.00;;;;;;;;5060221;28;45385;-83
2022/03/31 11:41:36;;;;;;;;;6.00;6.00;;;;;;;;5071797;28;45193;-81
2022/03/31 11:44:02;;;;;;;;;7.00;7.00;;;;;;;;5074214;27;45228;-83
2022/03/31 11:46:37;;;;;;;;;4.50;4.50;;;;;;;;5073777;27;46514;-84
2022/03/31 11:49:02;;;;;;;;;6.75;6.75;;;;;;;;5074488;28;45590;-83
2022/03/31 11:51:27;;;;;;;;;4.25;4.25;;;;;;;;5076543;27;45385;-84
2022/03/31 11:53:53;;;;;;;;;6.00;6.00;;;;;;;;5076096;27;45365;-82
2022/03/31 11:56:21;;;;;;;;;7.50;6.00;;;;;;;;5073319;27;45713;-82
2022/03/31 11:58:48;;;;;;;;;5.00;5.00;;;;;;;;5074413;27;45280;-83
2022/03/31 12:01:15;;;;;;;;;6.00;6.00;;;;;;;;5074766;27;45552;-82
2022/03/31 12:03:40;;;;;;;;;5.00;4.75;;;;;;;;5061190;28;45486;-81
2022/03/31 12:06:06;;;;;;;;;5.00;4.00;;;;;;;;5072808;28;47998;-82
2022/03/31 12:08:31;;;;;;;;;8.75;8.75;;;;;;;;5074312;27;45461;-81
2022/03/31 12:10:57;;;;;;;;;8.25;7.75;;;;;;;;5073797;27;45532;-82
2022/03/31 12:13:24;;;;;;;;;5.75;4.75;;;;;;;;5074066;27;45444;-81
2022/03/31 12:15:49;;;;;;;;;7.00;7.00;;;;;;;;5074815;27;46425;-82
2022/03/31 12:18:18;;;;;;;;;8.25;8.25;;;;;;;;5074540;27;45532;-82
2022/03/31 12:20:44;;;;;;;;;6.00;6.00;;;;;;;;5061226;28;45430;-80
2022/03/31 12:23:29;;;;;;;;;9.25;8.50;;;;;;;;5069356;28;45556;-82
2022/03/31 12:25:55;;;;;;;;;8.00;8.00;;;;;;;;5067909;27;46357;-82
2022/03/31 12:28:23;;;;;;;;;4.00;4.00;;;;;;;;5063528;28;45408;-81
2022/03/31 12:30:51;;;;;;;;;4.25;4.25;;;;;;;;5074676;27;45302;-82
2022/03/31 12:33:21;;;;;;;;;6.25;3.50;;;;;;;;5073071;28;45528;-83
2022/03/31 12:36:06;;;;;;;;;6.25;5.25;;;;;;;;5060990;28;46205;-82
2022/03/31 12:38:51;;;;;;;;;7.25;6.00;;;;;;;;5073711;28;45382;-82
2022/03/31 12:41:33;;;;;;;;;6.75;4.75;;;;;;;;5074466;28;45414;-82
2022/03/31 12:43:59;;;;;;;;;8.75;5.75;;;;;;;;5074515;28;45243;-83
2022/03/31 12:46:28;;;;;;;;;5.00;5.00;;;;;;;;5074000;28;46902;-82
2022/03/31 12:48:54;;;;;;;;;5.50;5.50;;;;;;;;5073660;27;45368;-81
2022/03/31 12:51:20;;;;;;;;;12.50;11.25;;;;;;;;5073996;27;45420;-82
2022/03/31 12:53:46;;;;;;;;;7.75;7.50;;;;;;;;5073483;27;45487;-82
2022/03/31 12:56:11;;;;;;;;;6.00;5.00;;;;;;;;5073209;28;45398;-82
2022/03/31 12:58:37;;;;;;;;;9.75;6.75;;;;;;;;5073585;28;45506;-83
2022/03/31 13:01:02;;;;;;;;;3.75;3.75;;;;;;;;5073656;27;45445;-82
2022/03/31 13:03:27;;;;;;;;;7.00;6.00;;;;;;;;5073766;28;45390;-80
2022/03/31 13:05:52;;;;;;;;;8.25;7.25;;;;;;;;5060096;28;46832;-81
2022/03/31 13:08:18;;;;;;;;;5.00;5.00;;;;;;;;5071833;28;45338;-82
2022/03/31 13:10:43;;;;;;;;;6.50;6.50;;;;;;;;5077143;28;45488;-83
2022/03/31 13:13:10;;;;;;;;;5.00;3.50;;;;;;;;5076549;28;45508;-83
2022/03/31 13:15:35;;;;;;;;;7.75;7.75;;;;;;;;5076489;28;46163;-83
2022/03/31 13:18:01;;;;;;;;;6.50;6.25;;;;;;;;5077622;28;45335;-83
2022/03/31 13:20:26;;;;;;;;;8.50;7.75;;;;;;;;5076625;28;45323;-83
2022/03/31 13:22:51;;;;;;;;;4.50;4.50;;;;;;;;5076470;27;45249;-83
2022/03/31 13:25:17;;;;;;;;;6.00;6.00;;;;;;;;5077252;28;46071;-83
2022/03/31 13:27:42;;;;;;;;;12.50;10.75;;;;;;;;5079626;28;45539;-83
2022/03/31 13:30:08;;;;;;;;;4.00;4.00;;;;;;;;5080025;27;45200;-82
2022/03/31 13:32:33;;;;;;;;;7.25;6.25;;;;;;;;5077196;27;45490;-83
2022/03/31 13:34:59;;;;;;;;;4.75;4.75;;;;;;;;5072181;27;46294;-83
2022/03/31 13:37:25;;;;;;;;;5.00;5.00;;;;;;;;5067109;28;47145;-82
2022/03/31 13:39:51;;;;;;;;;9.50;9.50;;;;;;;;5077502;27;45489;-83
2022/03/31 13:42:17;;;;;;;;;9.25;6.50;;;;;;;;5077262;27;45419;-83
2022/03/31 13:44:42;;;;;;;;;5.25;5.25;;;;;;;;5065198;27;46318;-83
2022/03/31 13:47:08;;;;;;;;;4.75;4.75;;;;;;;;5074736;28;45416;-84
2022/03/31 13:49:34;;;;;;;;;4.25;4.25;;;;;;;;5079432;27;44834;-84
2022/03/31 13:51:59;;;;;;;;;9.00;7.25;;;;;;;;5076396;28;45252;-83
2022/03/31 13:54:25;;;;;;;;;6.00;5.00;;;;;;;;5076444;27;46049;-84
2022/03/31 13:56:51;;;;;;;;;6.00;6.00;;;;;;;;5077172;27;45332;-83
2022/03/31 14:02:01;;;;;;;;;8.00;8.00;;;;;;;;5075433;28;45384;-81
2022/03/31 14:04:27;;;;;;;;;5.25;4.00;;;;;;;;5074990;27;45414;-81
2022/03/31 14:06:53;;;;;;;;;4.50;3.25;;;;;;;;5075155;27;45558;-81
2022/03/31 14:09:19;;;;;;;;;4.25;4.25;;;;;;;;5076788;27;45447;-81
2022/03/31 14:11:45;;;;;;;;;4.50;4.25;;;;;;;;5075788;27;45513;-78
2022/03/31 14:14:10;;;;;;;;;2.75;2.75;;;;;;;;5074914;27;47031;-80
2022/03/31 14:16:36;;;;;;;;;4.00;3.00;;;;;;;;5074712;28;45434;-80
2022/03/31 14:19:03;;;;;;;;;5.00;4.25;;;;;;;;5073118;28;45494;-77
2022/03/31 14:21:28;;;;;;;;;6.00;3.50;;;;;;;;5073727;27;45607;-78
2022/03/31 14:23:54;;;;;;;;;3.00;3.00;;;;;;;;5061621;27;46134;-78
2022/03/31 14:26:20;;;;;;;;;6.75;6.00;;;;;;;;5072423;28;45388;-78
2022/03/31 14:28:46;;;;;;;;;3.75;3.75;;;;;;;;5074655;28;45290;-79